sensor_id;sensor_type;location;lat;lon;timestamp;temperature;humidity
25811;DHT22;13645;52.460;13.910;2022-12-07T00:01:10;3.60;99.90
25811;DHT22;13645;52.460;13.910;2022-12-07T00:03:38;3.50;99.90
25811;DHT22;13645;52.460;13.910;2022-12-07T00:06:07;3.50;99.90
25811;DHT22;13645;52.460;13.910;2022-12-07T00:08:34;3.60;99.90
25811;DHT22;13645;52.460;13.910;2022-12-07T00:11:16;3.50;99.90
25811;DHT22;13645;52.460;13.910;2022-12-07T00:13:44;3.50;99.90
25811;DHT22;13645;52.460;13.910;2022-12-07T00:16:16;3.40;99.90
25811;DHT22;13645;52.460;13.910;2022-12-07T00:18:44;3.50;99.90
25811;DHT22;13645;52.460;13.910;2022-12-07T00:21:20;3.40;99.90
25811;DHT22;13645;52.460;13.910;2022-12-07T00:23:48;3.40;99.90
25811;DHT22;13645;52.460;13.910;2022-12-07T00:26:18;3.40;99.90
25811;DHT22;13645;52.460;13.910;2022-12-07T00:28:49;3.30;99.90
25811;DHT22;13645;52.460;13.910;2022-12-07T00:31:19;3.30;99.90
25811;DHT22;13645;52.460;13.910;2022-12-07T00:33:46;3.30;99.90
25811;DHT22;13645;52.460;13.910;2022-12-07T00:36:16;3.40;99.90
25811;DHT22;13645;52.460;13.910;2022-12-07T00:38:48;3.40;99.90
25811;DHT22;13645;52.460;13.910;2022-12-07T00:41:18;3.40;99.90
25811;DHT22;13645;52.460;13.910;2022-12-07T00:43:46;3.30;99.90
25811;DHT22;13645;52.460;13.910;2022-12-07T00:46:14;3.30;99.90
25811;DHT22;13645;52.460;13.910;2022-12-07T00:48:42;3.20;99.90
25811;DHT22;13645;52.460;13.910;2022-12-07T00:51:10;3.30;99.90
25811;DHT22;13645;52.460;13.910;2022-12-07T00:53:38;3.10;99.90
25811;DHT22;13645;52.460;13.910;2022-12-07T00:56:22;3.00;99.90
25811;DHT22;13645;52.460;13.910;2022-12-07T00:59:00;3.00;99.90
25811;DHT22;13645;52.460;13.910;2022-12-07T01:01:30;3.10;99.90
25811;DHT22;13645;52.460;13.910;2022-12-07T01:03:57;3.00;99.90
25811;DHT22;13645;52.460;13.910;2022-12-07T01:06:25;3.00;99.90
25811;DHT22;13645;52.460;13.910;2022-12-07T01:08:52;3.00;99.90
25811;DHT22;13645;52.460;13.910;2022-12-07T01:11:21;3.00;99.90
25811;DHT22;13645;52.460;13.910;2022-12-07T01:13:53;3.00;99.90
25811;DHT22;13645;52.460;13.910;2022-12-07T01:16:23;3.00;99.90
25811;DHT22;13645;52.460;13.910;2022-12-07T01:18:51;2.90;99.90
25811;DHT22;13645;52.460;13.910;2022-12-07T01:21:27;2.90;99.90
25811;DHT22;13645;52.460;13.910;2022-12-07T01:23:54;3.00;99.90
25811;DHT22;13645;52.460;13.910;2022-12-07T01:26:24;3.00;99.90
25811;DHT22;13645;52.460;13.910;2022-12-07T01:28:51;2.90;99.90
25811;DHT22;13645;52.460;13.910;2022-12-07T01:31:21;2.80;99.90
25811;DHT22;13645;52.460;13.910;2022-12-07T01:33:51;2.80;99.90
25811;DHT22;13645;52.460;13.910;2022-12-07T01:36:26;2.70;99.90
25811;DHT22;13645;52.460;13.910;2022-12-07T01:39:02;2.70;99.90
25811;DHT22;13645;52.460;13.910;2022-12-07T01:41:33;2.70;99.90
25811;DHT22;13645;52.460;13.910;2022-12-07T01:44:10;2.60;99.90
25811;DHT22;13645;52.460;13.910;2022-12-07T01:46:38;2.60;99.90
25811;DHT22;13645;52.460;13.910;2022-12-07T01:49:07;2.50;99.90
25811;DHT22;13645;52.460;13.910;2022-12-07T01:51:37;2.60;99.90
25811;DHT22;13645;52.460;13.910;2022-12-07T01:54:04;2.60;99.90
25811;DHT22;13645;52.460;13.910;2022-12-07T01:56:32;2.60;99.90
25811;DHT22;13645;52.460;13.910;2022-12-07T01:59:00;2.60;99.90
25811;DHT22;13645;52.460;13.910;2022-12-07T02:01:28;2.50;99.90
25811;DHT22;13645;52.460;13.910;2022-12-07T02:03:55;2.50;99.90
25811;DHT22;13645;52.460;13.910;2022-12-07T02:06:24;2.50;99.90
25811;DHT22;13645;52.460;13.910;2022-12-07T02:08:51;2.40;99.90
25811;DHT22;13645;52.460;13.910;2022-12-07T02:11:18;2.30;99.90
25811;DHT22;13645;52.460;13.910;2022-12-07T02:13:46;2.40;99.90
25811;DHT22;13645;52.460;13.910;2022-12-07T02:24:55;2.30;99.90
25811;DHT22;13645;52.460;13.910;2022-12-07T02:30:37;2.40;99.90
25811;DHT22;13645;52.460;13.910;2022-12-07T02:33:41;2.30;99.90
25811;DHT22;13645;52.460;13.910;2022-12-07T02:36:19;2.30;99.90
25811;DHT22;13645;52.460;13.910;2022-12-07T02:41:30;2.30;99.90
25811;DHT22;13645;52.460;13.910;2022-12-07T02:44:01;2.40;99.90
25811;DHT22;13645;52.460;13.910;2022-12-07T02:46:34;2.30;99.90
25811;DHT22;13645;52.460;13.910;2022-12-07T02:49:03;2.40;99.90
25811;DHT22;13645;52.460;13.910;2022-12-07T02:51:31;2.30;99.90
25811;DHT22;13645;52.460;13.910;2022-12-07T02:53:58;2.30;99.90
25811;DHT22;13645;52.460;13.910;2022-12-07T03:02:31;2.30;99.90
25811;DHT22;13645;52.460;13.910;2022-12-07T03:13:05;2.20;99.90
25811;DHT22;13645;52.460;13.910;2022-12-07T03:15:35;2.20;99.90
25811;DHT22;13645;52.460;13.910;2022-12-07T03:18:07;2.20;99.90
25811;DHT22;13645;52.460;13.910;2022-12-07T03:20:37;2.10;99.90
25811;DHT22;13645;52.460;13.910;2022-12-07T03:23:06;2.10;99.90
25811;DHT22;13645;52.460;13.910;2022-12-07T03:25:40;2.10;99.90
25811;DHT22;13645;52.460;13.910;2022-12-07T03:28:08;2.00;99.90
25811;DHT22;13645;52.460;13.910;2022-12-07T03:30:54;2.10;99.90
25811;DHT22;13645;52.460;13.910;2022-12-07T03:33:33;2.00;99.90
25811;DHT22;13645;52.460;13.910;2022-12-07T03:36:23;1.90;99.90
25811;DHT22;13645;52.460;13.910;2022-12-07T03:38:55;1.90;99.90
25811;DHT22;13645;52.460;13.910;2022-12-07T03:41:30;1.80;99.90
25811;DHT22;13645;52.460;13.910;2022-12-07T03:43:57;1.80;99.90
25811;DHT22;13645;52.460;13.910;2022-12-07T03:46:35;1.90;99.90
25811;DHT22;13645;52.460;13.910;2022-12-07T03:49:12;1.80;99.90
25811;DHT22;13645;52.460;13.910;2022-12-07T03:54:18;1.80;99.90
25811;DHT22;13645;52.460;13.910;2022-12-07T03:56:48;1.80;99.90
25811;DHT22;13645;52.460;13.910;2022-12-07T03:59:16;1.70;99.90
25811;DHT22;13645;52.460;13.910;2022-12-07T04:01:44;1.70;99.90
25811;DHT22;13645;52.460;13.910;2022-12-07T04:04:12;1.60;99.90
25811;DHT22;13645;52.460;13.910;2022-12-07T04:06:38;1.70;99.90
25811;DHT22;13645;52.460;13.910;2022-12-07T04:09:05;1.70;99.90
25811;DHT22;13645;52.460;13.910;2022-12-07T04:14:45;1.70;99.90
25811;DHT22;13645;52.460;13.910;2022-12-07T04:17:12;1.70;99.90
25811;DHT22;13645;52.460;13.910;2022-12-07T04:19:39;1.70;99.90
25811;DHT22;13645;52.460;13.910;2022-12-07T04:22:06;1.70;99.90
25811;DHT22;13645;52.460;13.910;2022-12-07T04:24:34;1.70;99.90
25811;DHT22;13645;52.460;13.910;2022-12-07T04:27:01;1.70;99.90
25811;DHT22;13645;52.460;13.910;2022-12-07T04:29:27;1.70;99.90
25811;DHT22;13645;52.460;13.910;2022-12-07T04:31:54;1.60;99.90
25811;DHT22;13645;52.460;13.910;2022-12-07T04:34:21;1.70;99.90
25811;DHT22;13645;52.460;13.910;2022-12-07T04:36:48;1.70;99.90
25811;DHT22;13645;52.460;13.910;2022-12-07T04:39:32;1.70;99.90
25811;DHT22;13645;52.460;13.910;2022-12-07T04:42:00;1.70;99.90
25811;DHT22;13645;52.460;13.910;2022-12-07T04:44:28;1.70;99.90
25811;DHT22;13645;52.460;13.910;2022-12-07T04:46:56;1.70;99.90
25811;DHT22;13645;52.460;13.910;2022-12-07T04:53:05;1.70;99.90
25811;DHT22;13645;52.460;13.910;2022-12-07T04:55:31;1.70;99.90
25811;DHT22;13645;52.460;13.910;2022-12-07T04:57:58;1.70;99.90
25811;DHT22;13645;52.460;13.910;2022-12-07T05:00:25;1.70;99.90
25811;DHT22;13645;52.460;13.910;2022-12-07T05:02:52;1.70;99.90
25811;DHT22;13645;52.460;13.910;2022-12-07T05:05:19;1.70;99.90
25811;DHT22;13645;52.460;13.910;2022-12-07T05:07:46;1.70;99.90
25811;DHT22;13645;52.460;13.910;2022-12-07T05:10:43;1.60;99.90
25811;DHT22;13645;52.460;13.910;2022-12-07T05:16:54;1.60;99.90
25811;DHT22;13645;52.460;13.910;2022-12-07T05:19:21;1.60;99.90
25811;DHT22;13645;52.460;13.910;2022-12-07T05:21:48;1.60;99.90
25811;DHT22;13645;52.460;13.910;2022-12-07T05:24:16;1.60;99.90
25811;DHT22;13645;52.460;13.910;2022-12-07T05:26:44;1.60;99.90
25811;DHT22;13645;52.460;13.910;2022-12-07T05:29:13;1.70;99.90
25811;DHT22;13645;52.460;13.910;2022-12-07T05:31:40;1.70;99.90
25811;DHT22;13645;52.460;13.910;2022-12-07T05:34:08;1.80;99.90
25811;DHT22;13645;52.460;13.910;2022-12-07T05:36:35;1.70;99.90
25811;DHT22;13645;52.460;13.910;2022-12-07T05:39:02;1.70;99.90
25811;DHT22;13645;52.460;13.910;2022-12-07T05:41:29;1.70;99.90
25811;DHT22;13645;52.460;13.910;2022-12-07T05:44:14;1.80;99.90
25811;DHT22;13645;52.460;13.910;2022-12-07T05:46:41;1.80;99.90
25811;DHT22;13645;52.460;13.910;2022-12-07T05:49:08;1.80;99.90
25811;DHT22;13645;52.460;13.910;2022-12-07T05:51:35;1.80;99.90
25811;DHT22;13645;52.460;13.910;2022-12-07T05:54:02;1.80;99.90
25811;DHT22;13645;52.460;13.910;2022-12-07T05:56:29;1.70;99.90
25811;DHT22;13645;52.460;13.910;2022-12-07T05:58:55;1.80;99.90
25811;DHT22;13645;52.460;13.910;2022-12-07T06:01:41;1.70;99.90
25811;DHT22;13645;52.460;13.910;2022-12-07T06:04:08;1.70;99.90
25811;DHT22;13645;52.460;13.910;2022-12-07T06:06:34;1.70;99.90
25811;DHT22;13645;52.460;13.910;2022-12-07T06:09:02;1.70;99.90
25811;DHT22;13645;52.460;13.910;2022-12-07T06:11:29;1.70;99.90
25811;DHT22;13645;52.460;13.910;2022-12-07T06:14:17;1.70;99.90
25811;DHT22;13645;52.460;13.910;2022-12-07T06:16:44;1.70;99.90
25811;DHT22;13645;52.460;13.910;2022-12-07T06:19:11;1.70;99.90
25811;DHT22;13645;52.460;13.910;2022-12-07T06:21:38;1.80;99.90
25811;DHT22;13645;52.460;13.910;2022-12-07T06:24:06;1.80;99.90
25811;DHT22;13645;52.460;13.910;2022-12-07T06:26:33;1.90;99.90
25811;DHT22;13645;52.460;13.910;2022-12-07T06:29:00;1.90;99.90
25811;DHT22;13645;52.460;13.910;2022-12-07T06:31:26;1.90;99.90
25811;DHT22;13645;52.460;13.910;2022-12-07T06:34:02;2.00;99.90
25811;DHT22;13645;52.460;13.910;2022-12-07T06:36:29;2.00;99.90
25811;DHT22;13645;52.460;13.910;2022-12-07T06:38:56;2.10;99.90
25811;DHT22;13645;52.460;13.910;2022-12-07T06:41:22;2.10;99.90
25811;DHT22;13645;52.460;13.910;2022-12-07T06:43:50;2.10;99.90
25811;DHT22;13645;52.460;13.910;2022-12-07T06:46:22;2.20;99.90
25811;DHT22;13645;52.460;13.910;2022-12-07T06:48:49;2.20;99.90
25811;DHT22;13645;52.460;13.910;2022-12-07T06:51:16;2.30;99.90
25811;DHT22;13645;52.460;13.910;2022-12-07T06:53:43;2.30;99.90
25811;DHT22;13645;52.460;13.910;2022-12-07T06:56:09;2.30;99.90
25811;DHT22;13645;52.460;13.910;2022-12-07T06:58:36;2.30;99.90
25811;DHT22;13645;52.460;13.910;2022-12-07T07:01:17;2.40;99.90
25811;DHT22;13645;52.460;13.910;2022-12-07T07:03:45;2.40;99.90
25811;DHT22;13645;52.460;13.910;2022-12-07T07:06:12;2.40;99.90
25811;DHT22;13645;52.460;13.910;2022-12-07T07:08:39;2.40;99.90
25811;DHT22;13645;52.460;13.910;2022-12-07T07:11:07;2.40;99.90
25811;DHT22;13645;52.460;13.910;2022-12-07T07:13:35;2.40;99.90
25811;DHT22;13645;52.460;13.910;2022-12-07T07:16:02;2.50;99.90
25811;DHT22;13645;52.460;13.910;2022-12-07T07:18:29;2.40;99.90
25811;DHT22;13645;52.460;13.910;2022-12-07T07:20:56;2.50;99.90
25811;DHT22;13645;52.460;13.910;2022-12-07T07:23:23;2.50;99.90
25811;DHT22;13645;52.460;13.910;2022-12-07T07:25:50;2.50;99.90
25811;DHT22;13645;52.460;13.910;2022-12-07T07:28:17;2.50;99.90
25811;DHT22;13645;52.460;13.910;2022-12-07T07:30:44;2.50;99.90
25811;DHT22;13645;52.460;13.910;2022-12-07T07:33:11;2.60;99.90
25811;DHT22;13645;52.460;13.910;2022-12-07T07:35:38;2.60;99.90
25811;DHT22;13645;52.460;13.910;2022-12-07T07:38:06;2.60;99.90
25811;DHT22;13645;52.460;13.910;2022-12-07T07:40:33;2.70;99.90
25811;DHT22;13645;52.460;13.910;2022-12-07T07:43:00;2.60;99.90
25811;DHT22;13645;52.460;13.910;2022-12-07T07:45:27;2.70;99.90
25811;DHT22;13645;52.460;13.910;2022-12-07T07:47:54;2.70;99.90
25811;DHT22;13645;52.460;13.910;2022-12-07T07:50:21;2.70;99.90
25811;DHT22;13645;52.460;13.910;2022-12-07T07:52:49;2.80;99.90
25811;DHT22;13645;52.460;13.910;2022-12-07T07:55:16;2.80;99.90
25811;DHT22;13645;52.460;13.910;2022-12-07T07:57:43;2.80;99.90
25811;DHT22;13645;52.460;13.910;2022-12-07T08:00:17;2.90;99.90
25811;DHT22;13645;52.460;13.910;2022-12-07T08:02:44;2.90;99.90
25811;DHT22;13645;52.460;13.910;2022-12-07T08:05:11;2.90;99.90
25811;DHT22;13645;52.460;13.910;2022-12-07T08:07:39;2.90;99.90
25811;DHT22;13645;52.460;13.910;2022-12-07T08:10:07;2.90;99.90
25811;DHT22;13645;52.460;13.910;2022-12-07T08:12:39;2.90;99.90
25811;DHT22;13645;52.460;13.910;2022-12-07T08:15:28;2.90;99.90
25811;DHT22;13645;52.460;13.910;2022-12-07T08:17:55;2.90;99.90
25811;DHT22;13645;52.460;13.910;2022-12-07T08:20:22;3.00;99.90
25811;DHT22;13645;52.460;13.910;2022-12-07T08:22:49;3.20;99.90
25811;DHT22;13645;52.460;13.910;2022-12-07T08:25:15;3.20;99.90
25811;DHT22;13645;52.460;13.910;2022-12-07T08:27:42;3.20;99.90
25811;DHT22;13645;52.460;13.910;2022-12-07T08:30:09;3.20;99.90
25811;DHT22;13645;52.460;13.910;2022-12-07T08:32:36;3.30;99.90
25811;DHT22;13645;52.460;13.910;2022-12-07T08:35:03;3.30;99.90
25811;DHT22;13645;52.460;13.910;2022-12-07T08:37:30;3.40;99.90
25811;DHT22;13645;52.460;13.910;2022-12-07T08:39:57;3.30;99.90
25811;DHT22;13645;52.460;13.910;2022-12-07T08:42:24;3.30;99.90
25811;DHT22;13645;52.460;13.910;2022-12-07T08:44:56;3.30;99.90
25811;DHT22;13645;52.460;13.910;2022-12-07T08:47:24;3.30;99.90
25811;DHT22;13645;52.460;13.910;2022-12-07T08:49:52;3.40;99.90
25811;DHT22;13645;52.460;13.910;2022-12-07T08:52:20;3.40;99.90
25811;DHT22;13645;52.460;13.910;2022-12-07T08:54:47;3.40;99.90
25811;DHT22;13645;52.460;13.910;2022-12-07T08:57:13;3.30;99.90
25811;DHT22;13645;52.460;13.910;2022-12-07T08:59:40;3.40;99.90
25811;DHT22;13645;52.460;13.910;2022-12-07T09:02:07;3.40;99.90
25811;DHT22;13645;52.460;13.910;2022-12-07T09:04:34;3.40;99.90
25811;DHT22;13645;52.460;13.910;2022-12-07T09:07:00;3.40;99.90
25811;DHT22;13645;52.460;13.910;2022-12-07T09:09:27;3.40;99.90
25811;DHT22;13645;52.460;13.910;2022-12-07T09:11:54;3.40;99.90
25811;DHT22;13645;52.460;13.910;2022-12-07T09:14:27;3.50;99.90
25811;DHT22;13645;52.460;13.910;2022-12-07T09:16:54;3.50;99.90
25811;DHT22;13645;52.460;13.910;2022-12-07T09:19:20;3.50;99.90
25811;DHT22;13645;52.460;13.910;2022-12-07T09:21:47;3.50;99.90
25811;DHT22;13645;52.460;13.910;2022-12-07T09:24:14;3.50;99.90
25811;DHT22;13645;52.460;13.910;2022-12-07T09:26:41;3.60;99.90
25811;DHT22;13645;52.460;13.910;2022-12-07T09:29:07;3.50;99.90
25811;DHT22;13645;52.460;13.910;2022-12-07T09:31:36;3.50;99.90
25811;DHT22;13645;52.460;13.910;2022-12-07T09:34:03;3.50;99.90
25811;DHT22;13645;52.460;13.910;2022-12-07T09:36:32;3.60;99.90
25811;DHT22;13645;52.460;13.910;2022-12-07T09:38:59;3.60;99.90
25811;DHT22;13645;52.460;13.910;2022-12-07T09:41:27;3.60;99.90
25811;DHT22;13645;52.460;13.910;2022-12-07T09:44:06;3.60;99.90
25811;DHT22;13645;52.460;13.910;2022-12-07T09:46:39;3.70;99.90
25811;DHT22;13645;52.460;13.910;2022-12-07T09:49:11;3.70;99.90
25811;DHT22;13645;52.460;13.910;2022-12-07T09:51:38;3.70;99.90
25811;DHT22;13645;52.460;13.910;2022-12-07T09:54:05;3.70;99.90
25811;DHT22;13645;52.460;13.910;2022-12-07T09:56:32;3.70;99.90
25811;DHT22;13645;52.460;13.910;2022-12-07T09:59:01;3.70;99.90
25811;DHT22;13645;52.460;13.910;2022-12-07T10:01:30;3.70;99.90
25811;DHT22;13645;52.460;13.910;2022-12-07T10:06:36;3.70;99.90
25811;DHT22;13645;52.460;13.910;2022-12-07T10:09:12;3.70;99.90
25811;DHT22;13645;52.460;13.910;2022-12-07T10:12:06;3.80;99.90
25811;DHT22;13645;52.460;13.910;2022-12-07T10:14:35;3.80;99.90
25811;DHT22;13645;52.460;13.910;2022-12-07T10:17:36;3.80;99.90
25811;DHT22;13645;52.460;13.910;2022-12-07T10:20:22;3.80;99.90
25811;DHT22;13645;52.460;13.910;2022-12-07T10:25:33;3.80;99.90
25811;DHT22;13645;52.460;13.910;2022-12-07T10:30:53;3.80;99.90
25811;DHT22;13645;52.460;13.910;2022-12-07T10:33:59;3.80;99.90
25811;DHT22;13645;52.460;13.910;2022-12-07T10:36:38;3.70;99.90
25811;DHT22;13645;52.460;13.910;2022-12-07T10:39:14;3.70;99.90
25811;DHT22;13645;52.460;13.910;2022-12-07T10:42:00;3.60;99.90
25811;DHT22;13645;52.460;13.910;2022-12-07T10:44:32;3.60;99.90
25811;DHT22;13645;52.460;13.910;2022-12-07T10:47:20;3.50;99.90
25811;DHT22;13645;52.460;13.910;2022-12-07T10:50:56;3.50;99.90
25811;DHT22;13645;52.460;13.910;2022-12-07T10:56:17;3.50;99.90
25811;DHT22;13645;52.460;13.910;2022-12-07T11:19:06;4.60;99.90
25811;DHT22;13645;52.460;13.910;2022-12-07T11:24:30;4.70;99.90
25811;DHT22;13645;52.460;13.910;2022-12-07T11:30:18;4.40;99.90
25811;DHT22;13645;52.460;13.910;2022-12-07T11:38:14;4.10;99.90
25811;DHT22;13645;52.460;13.910;2022-12-07T11:40:55;4.00;99.90
25811;DHT22;13645;52.460;13.910;2022-12-07T11:43:28;4.00;99.90
25811;DHT22;13645;52.460;13.910;2022-12-07T11:46:15;3.90;99.90
25811;DHT22;13645;52.460;13.910;2022-12-07T11:48:47;3.90;99.90
25811;DHT22;13645;52.460;13.910;2022-12-07T11:51:18;3.90;99.90
25811;DHT22;13645;52.460;13.910;2022-12-07T11:53:57;3.80;99.90
25811;DHT22;13645;52.460;13.910;2022-12-07T11:56:28;3.80;99.90
25811;DHT22;13645;52.460;13.910;2022-12-07T11:59:10;3.80;99.90
25811;DHT22;13645;52.460;13.910;2022-12-07T12:06:41;3.90;99.90
25811;DHT22;13645;52.460;13.910;2022-12-07T12:09:31;3.90;99.90
25811;DHT22;13645;52.460;13.910;2022-12-07T12:18:04;4.10;99.90
25811;DHT22;13645;52.460;13.910;2022-12-07T12:23:11;4.10;99.90
25811;DHT22;13645;52.460;13.910;2022-12-07T12:25:46;4.10;99.90
25811;DHT22;13645;52.460;13.910;2022-12-07T12:31:15;4.00;99.90
25811;DHT22;13645;52.460;13.910;2022-12-07T12:33:52;4.00;99.90
25811;DHT22;13645;52.460;13.910;2022-12-07T12:39:08;4.00;99.90
25811;DHT22;13645;52.460;13.910;2022-12-07T12:46:46;4.30;99.90
25811;DHT22;13645;52.460;13.910;2022-12-07T12:51:48;4.30;99.90
25811;DHT22;13645;52.460;13.910;2022-12-07T12:57:04;4.30;99.90
25811;DHT22;13645;52.460;13.910;2022-12-07T13:02:29;4.30;99.90
25811;DHT22;13645;52.460;13.910;2022-12-07T13:05:16;4.20;99.90
25811;DHT22;13645;52.460;13.910;2022-12-07T13:10:21;4.20;99.90
25811;DHT22;13645;52.460;13.910;2022-12-07T13:15:50;4.20;99.90
25811;DHT22;13645;52.460;13.910;2022-12-07T13:31:35;4.30;99.90
25811;DHT22;13645;52.460;13.910;2022-12-07T13:34:04;4.20;99.90
25811;DHT22;13645;52.460;13.910;2022-12-07T13:36:38;4.30;99.90
25811;DHT22;13645;52.460;13.910;2022-12-07T13:41:44;4.30;99.90
25811;DHT22;13645;52.460;13.910;2022-12-07T13:44:15;4.20;99.90
25811;DHT22;13645;52.460;13.910;2022-12-07T13:49:31;4.30;99.90
25811;DHT22;13645;52.460;13.910;2022-12-07T13:52:20;4.20;99.90
25811;DHT22;13645;52.460;13.910;2022-12-07T13:55:14;4.10;99.90
25811;DHT22;13645;52.460;13.910;2022-12-07T13:57:41;4.10;99.90
25811;DHT22;13645;52.460;13.910;2022-12-07T14:00:28;4.10;99.90
25811;DHT22;13645;52.460;13.910;2022-12-07T14:05:42;4.00;99.90
25811;DHT22;13645;52.460;13.910;2022-12-07T14:10:39;4.00;99.90
25811;DHT22;13645;52.460;13.910;2022-12-07T14:13:32;4.00;99.90
25811;DHT22;13645;52.460;13.910;2022-12-07T14:16:04;4.00;99.90
25811;DHT22;13645;52.460;13.910;2022-12-07T14:21:23;4.00;99.90
25811;DHT22;13645;52.460;13.910;2022-12-07T14:26:39;4.10;99.90
25811;DHT22;13645;52.460;13.910;2022-12-07T14:31:54;4.00;99.90
25811;DHT22;13645;52.460;13.910;2022-12-07T14:34:22;4.00;99.90
25811;DHT22;13645;52.460;13.910;2022-12-07T14:36:49;4.00;99.90
25811;DHT22;13645;52.460;13.910;2022-12-07T14:39:16;3.90;99.90
25811;DHT22;13645;52.460;13.910;2022-12-07T14:41:43;3.90;99.90
25811;DHT22;13645;52.460;13.910;2022-12-07T14:44:21;4.00;99.90
25811;DHT22;13645;52.460;13.910;2022-12-07T14:46:53;4.00;99.90
25811;DHT22;13645;52.460;13.910;2022-12-07T14:49:40;3.90;99.90
25811;DHT22;13645;52.460;13.910;2022-12-07T14:52:16;3.90;99.90
25811;DHT22;13645;52.460;13.910;2022-12-07T14:55:04;3.90;99.90
25811;DHT22;13645;52.460;13.910;2022-12-07T14:57:31;3.90;99.90
25811;DHT22;13645;52.460;13.910;2022-12-07T14:59:58;3.90;99.90
25811;DHT22;13645;52.460;13.910;2022-12-07T15:02:24;3.90;99.90
25811;DHT22;13645;52.460;13.910;2022-12-07T15:04:51;4.00;99.90
25811;DHT22;13645;52.460;13.910;2022-12-07T15:07:21;4.00;99.90
25811;DHT22;13645;52.460;13.910;2022-12-07T15:09:48;3.90;99.90
25811;DHT22;13645;52.460;13.910;2022-12-07T15:12:15;4.00;99.90
25811;DHT22;13645;52.460;13.910;2022-12-07T15:14:42;4.00;99.90
25811;DHT22;13645;52.460;13.910;2022-12-07T15:17:12;4.10;99.90
25811;DHT22;13645;52.460;13.910;2022-12-07T15:19:55;4.10;99.90
25811;DHT22;13645;52.460;13.910;2022-12-07T15:22:22;4.10;99.90
25811;DHT22;13645;52.460;13.910;2022-12-07T15:24:48;4.10;99.90
25811;DHT22;13645;52.460;13.910;2022-12-07T15:27:15;4.00;99.90
25811;DHT22;13645;52.460;13.910;2022-12-07T15:29:42;4.00;99.90
25811;DHT22;13645;52.460;13.910;2022-12-07T15:32:09;4.10;99.90
25811;DHT22;13645;52.460;13.910;2022-12-07T15:34:35;4.10;99.90
25811;DHT22;13645;52.460;13.910;2022-12-07T15:37:07;4.10;99.90
25811;DHT22;13645;52.460;13.910;2022-12-07T15:39:34;4.20;99.90
25811;DHT22;13645;52.460;13.910;2022-12-07T15:42:01;4.00;99.90
25811;DHT22;13645;52.460;13.910;2022-12-07T15:44:27;3.90;99.90
25811;DHT22;13645;52.460;13.910;2022-12-07T15:47:13;4.00;99.90
25811;DHT22;13645;52.460;13.910;2022-12-07T15:49:39;3.90;99.90
25811;DHT22;13645;52.460;13.910;2022-12-07T15:52:06;3.90;99.90
25811;DHT22;13645;52.460;13.910;2022-12-07T15:54:33;3.90;99.90
25811;DHT22;13645;52.460;13.910;2022-12-07T15:57:00;3.90;99.90
25811;DHT22;13645;52.460;13.910;2022-12-07T15:59:27;3.90;99.90
25811;DHT22;13645;52.460;13.910;2022-12-07T16:01:55;3.80;99.90
25811;DHT22;13645;52.460;13.910;2022-12-07T16:04:22;3.80;99.90
25811;DHT22;13645;52.460;13.910;2022-12-07T16:06:49;3.70;99.90
25811;DHT22;13645;52.460;13.910;2022-12-07T16:09:18;3.60;99.90
25811;DHT22;13645;52.460;13.910;2022-12-07T16:11:44;3.60;99.90
25811;DHT22;13645;52.460;13.910;2022-12-07T16:14:11;3.60;99.90
25811;DHT22;13645;52.460;13.910;2022-12-07T16:16:38;3.60;99.90
25811;DHT22;13645;52.460;13.910;2022-12-07T16:19:07;3.60;99.90
25811;DHT22;13645;52.460;13.910;2022-12-07T16:21:35;3.60;99.90
25811;DHT22;13645;52.460;13.910;2022-12-07T16:24:02;3.50;99.90
25811;DHT22;13645;52.460;13.910;2022-12-07T16:26:29;3.50;99.90
25811;DHT22;13645;52.460;13.910;2022-12-07T16:28:57;3.60;99.90
25811;DHT22;13645;52.460;13.910;2022-12-07T16:31:26;3.60;99.90
25811;DHT22;13645;52.460;13.910;2022-12-07T16:33:54;3.60;99.90
25811;DHT22;13645;52.460;13.910;2022-12-07T16:36:21;3.60;99.90
25811;DHT22;13645;52.460;13.910;2022-12-07T16:39:10;3.60;99.90
25811;DHT22;13645;52.460;13.910;2022-12-07T16:41:37;3.60;99.90
25811;DHT22;13645;52.460;13.910;2022-12-07T16:44:06;3.60;99.90
25811;DHT22;13645;52.460;13.910;2022-12-07T16:46:33;3.60;99.90
25811;DHT22;13645;52.460;13.910;2022-12-07T16:49:01;3.60;99.90
25811;DHT22;13645;52.460;13.910;2022-12-07T16:51:27;3.50;99.90
25811;DHT22;13645;52.460;13.910;2022-12-07T16:53:54;3.40;99.90
25811;DHT22;13645;52.460;13.910;2022-12-07T16:56:21;2.90;99.90
25811;DHT22;13645;52.460;13.910;2022-12-07T16:58:48;2.50;99.90
25811;DHT22;13645;52.460;13.910;2022-12-07T17:01:18;2.30;99.90
25811;DHT22;13645;52.460;13.910;2022-12-07T17:03:46;2.20;99.90
25811;DHT22;13645;52.460;13.910;2022-12-07T17:06:21;2.10;99.90
25811;DHT22;13645;52.460;13.910;2022-12-07T17:08:48;2.10;99.90
25811;DHT22;13645;52.460;13.910;2022-12-07T17:11:33;2.10;99.90
25811;DHT22;13645;52.460;13.910;2022-12-07T17:14:00;2.10;99.90
25811;DHT22;13645;52.460;13.910;2022-12-07T17:16:46;2.10;99.90
25811;DHT22;13645;52.460;13.910;2022-12-07T17:19:15;2.20;99.90
25811;DHT22;13645;52.460;13.910;2022-12-07T17:21:43;2.10;99.90
25811;DHT22;13645;52.460;13.910;2022-12-07T17:24:12;2.10;99.90
25811;DHT22;13645;52.460;13.910;2022-12-07T17:26:39;2.10;99.90
25811;DHT22;13645;52.460;13.910;2022-12-07T17:29:07;2.10;99.90
25811;DHT22;13645;52.460;13.910;2022-12-07T17:31:35;2.20;99.90
25811;DHT22;13645;52.460;13.910;2022-12-07T17:34:02;2.20;99.90
25811;DHT22;13645;52.460;13.910;2022-12-07T17:36:31;2.30;99.90
25811;DHT22;13645;52.460;13.910;2022-12-07T17:38:58;2.40;99.90
25811;DHT22;13645;52.460;13.910;2022-12-07T17:41:27;2.50;99.90
25811;DHT22;13645;52.460;13.910;2022-12-07T17:44:15;2.50;99.90
25811;DHT22;13645;52.460;13.910;2022-12-07T17:46:43;2.60;99.90
25811;DHT22;13645;52.460;13.910;2022-12-07T17:49:10;2.60;99.90
25811;DHT22;13645;52.460;13.910;2022-12-07T17:51:37;2.60;99.90
25811;DHT22;13645;52.460;13.910;2022-12-07T17:54:23;2.60;99.90
25811;DHT22;13645;52.460;13.910;2022-12-07T17:56:50;2.60;99.90
25811;DHT22;13645;52.460;13.910;2022-12-07T17:59:17;2.50;99.90
25811;DHT22;13645;52.460;13.910;2022-12-07T18:01:44;2.50;99.90
25811;DHT22;13645;52.460;13.910;2022-12-07T18:04:11;2.50;99.90
25811;DHT22;13645;52.460;13.910;2022-12-07T18:06:38;2.50;99.90
25811;DHT22;13645;52.460;13.910;2022-12-07T18:09:06;2.50;99.90
25811;DHT22;13645;52.460;13.910;2022-12-07T18:11:33;2.50;99.90
25811;DHT22;13645;52.460;13.910;2022-12-07T18:14:00;2.50;99.90
25811;DHT22;13645;52.460;13.910;2022-12-07T18:16:28;2.40;99.90
25811;DHT22;13645;52.460;13.910;2022-12-07T18:19:03;2.50;99.90
25811;DHT22;13645;52.460;13.910;2022-12-07T18:21:31;2.30;99.90
25811;DHT22;13645;52.460;13.910;2022-12-07T18:24:00;2.40;99.90
25811;DHT22;13645;52.460;13.910;2022-12-07T18:26:29;2.40;99.90